Time;durP1;ratioP1;P1;durP2;ratioP2;P2;SDS_P1;SDS_P2;PMS_P1;PMS_P2;Temp;Humidity;BMP_temperature;BMP_pressure;BME280_temperature;BME280_humidity;BME280_pressure;Samples;Min_cycle;Max_cycle;Signal;HPM_P1;HPM_P2
2022/05/11 00:01:35;;;;;;;3.60;3.30;;;20.50;99.90;;;;;;5035109;28;20061;-89
2022/05/11 00:04:02;;;;;;;5.50;3.25;;;20.50;99.90;;;;;;5035040;28;20083;-88
2022/05/11 00:06:29;;;;;;;5.07;3.20;;;20.40;99.90;;;;;;5034826;28;20444;-88
2022/05/11 00:08:56;;;;;;;3.47;3.17;;;20.50;99.90;;;;;;5034321;28;20474;-88
2022/05/11 00:11:23;;;;;;;6.22;3.60;;;20.50;99.90;;;;;;5016846;28;20091;-88
2022/05/11 00:13:49;;;;;;;3.88;3.17;;;20.50;99.90;;;;;;5034144;28;20053;-89
2022/05/11 00:16:15;;;;;;;3.50;3.20;;;20.40;99.90;;;;;;5034255;28;20033;-89
2022/05/11 00:18:42;;;;;;;5.07;3.30;;;20.30;99.90;;;;;;5034534;28;20037;-88
2022/05/11 00:21:09;;;;;;;4.55;3.30;;;20.30;99.90;;;;;;5016490;28;20121;-88
2022/05/11 00:23:34;;;;;;;3.60;3.28;;;20.30;99.90;;;;;;5034239;28;20041;-88
2022/05/11 00:26:00;;;;;;;3.47;3.17;;;20.30;99.90;;;;;;5029459;28;20025;-87
2022/05/11 00:28:26;;;;;;;4.63;3.50;;;20.30;99.90;;;;;;5033655;28;20444;-88
2022/05/11 00:30:52;;;;;;;3.53;2.90;;;20.20;99.90;;;;;;5034432;28;20045;-88
2022/05/11 00:33:19;;;;;;;4.85;3.33;;;20.10;99.90;;;;;;5033529;28;20072;-90
2022/05/11 00:35:47;;;;;;;3.75;3.33;;;20.10;99.90;;;;;;5034092;28;20067;-88
2022/05/11 00:38:14;;;;;;;3.83;3.25;;;20.10;99.90;;;;;;5033190;28;20041;-89
2022/05/11 00:40:50;;;;;;;4.00;3.60;;;20.10;99.90;;;;;;5033283;28;20037;-87
2022/05/11 00:43:31;;;;;;;4.47;3.10;;;20.10;99.90;;;;;;5033832;28;20034;-88
2022/05/11 00:46:39;;;;;;;3.40;3.10;;;20.00;99.90;;;;;;5033804;28;20474;-88
2022/05/11 00:52:09;;;;;;;4.93;2.90;;;19.90;99.90;;;;;;4950983;28;20473;-88
2022/05/11 00:54:39;;;;;;;3.60;3.10;;;19.90;99.90;;;;;;4953942;28;20430;-89
2022/05/11 00:57:11;;;;;;;6.28;3.20;;;19.90;99.90;;;;;;4952853;28;20444;-88
2022/05/11 00:59:41;;;;;;;7.55;3.35;;;19.90;99.90;;;;;;4953288;28;20055;-89
2022/05/11 01:02:06;;;;;;;4.95;3.25;;;19.80;99.90;;;;;;4953334;28;20045;-89
2022/05/11 01:04:36;;;;;;;3.55;3.25;;;19.80;99.90;;;;;;4953075;28;20031;-88
2022/05/11 01:07:04;;;;;;;3.47;3.17;;;19.80;99.90;;;;;;4953260;28;20046;-88
2022/05/11 01:09:30;;;;;;;3.67;3.28;;;19.80;99.90;;;;;;4953479;29;20110;-88
2022/05/11 01:11:59;;;;;;;4.85;3.40;;;19.80;99.90;;;;;;4952668;28;20141;-88
2022/05/11 01:14:29;;;;;;;4.30;3.25;;;19.80;99.90;;;;;;4952529;28;20027;-88
2022/05/11 01:16:57;;;;;;;3.50;3.20;;;19.80;99.90;;;;;;4952612;28;20035;-88
2022/05/11 01:19:27;;;;;;;3.70;3.40;;;19.90;99.90;;;;;;4952589;28;20093;-88
2022/05/11 01:22:03;;;;;;;4.50;3.63;;;19.90;99.90;;;;;;4952969;29;20039;-88
2022/05/11 01:24:39;;;;;;;4.25;3.30;;;19.90;99.90;;;;;;4941316;28;20039;-88
2022/05/11 01:27:32;;;;;;;3.60;3.30;;;19.90;99.90;;;;;;5031280;28;20036;-88
2022/05/11 01:30:04;;;;;;;4.18;3.28;;;19.90;99.90;;;;;;5032752;28;20091;-89
2022/05/11 01:32:31;;;;;;;4.00;3.25;;;19.90;99.90;;;;;;5014994;28;20061;-89
2022/05/11 01:35:29;;;;;;;4.00;3.50;;;19.90;99.90;;;;;;5032974;28;20033;-89
2022/05/11 01:38:27;;;;;;;3.58;3.28;;;20.00;99.90;;;;;;5032632;28;20032;-87
2022/05/11 01:40:53;;;;;;;3.70;3.30;;;20.00;99.90;;;;;;5024398;28;20069;-88
2022/05/11 01:43:21;;;;;;;5.05;3.20;;;19.90;99.90;;;;;;5015835;28;20491;-89
2022/05/11 01:45:48;;;;;;;3.65;3.35;;;19.80;99.90;;;;;;5033075;28;20033;-89
2022/05/11 01:48:14;;;;;;;5.18;3.40;;;19.90;99.90;;;;;;5014527;28;20095;-89
2022/05/11 01:50:40;;;;;;;4.05;3.40;;;19.80;99.90;;;;;;5032695;28;20026;-89
2022/05/11 01:53:06;;;;;;;4.53;3.50;;;19.80;99.90;;;;;;5032522;28;20167;-89
2022/05/11 01:55:32;;;;;;;3.75;3.45;;;19.90;99.90;;;;;;5031853;28;20025;-89
2022/05/11 01:57:58;;;;;;;3.75;3.45;;;19.90;99.90;;;;;;5032396;28;20046;-88
2022/05/11 02:00:24;;;;;;;3.67;3.38;;;19.90;99.90;;;;;;5013025;28;20030;-88
2022/05/11 02:02:50;;;;;;;3.53;3.22;;;19.90;99.90;;;;;;5010805;28;20045;-89
2022/05/11 02:08:00;;;;;;;4.55;3.50;;;19.80;99.90;;;;;;5032416;28;20040;-88
2022/05/11 02:10:27;;;;;;;4.38;3.50;;;19.80;99.90;;;;;;5032292;28;20025;-88
2022/05/11 02:12:53;;;;;;;5.03;3.22;;;19.80;99.90;;;;;;5032151;28;20033;-88
2022/05/11 02:15:19;;;;;;;3.58;3.10;;;19.80;99.90;;;;;;5014530;28;20060;-88
2022/05/11 02:17:46;;;;;;;3.60;3.30;;;19.70;99.90;;;;;;5014041;28;20033;-88
2022/05/11 02:20:14;;;;;;;4.47;3.33;;;19.60;99.90;;;;;;5032062;28;20525;-89
2022/05/11 02:22:41;;;;;;;3.10;2.90;;;19.70;99.90;;;;;;5031880;28;20075;-89
2022/05/11 02:25:08;;;;;;;3.83;3.50;;;19.60;99.90;;;;;;5031980;28;20047;-88
2022/05/11 02:27:34;;;;;;;6.40;3.38;;;19.60;99.90;;;;;;5014644;28;20033;-88
2022/05/11 02:30:00;;;;;;;5.10;3.50;;;19.60;99.90;;;;;;5014167;28;20036;-88
2022/05/11 02:32:27;;;;;;;3.85;3.30;;;19.70;99.90;;;;;;5031411;28;20104;-88
2022/05/11 02:37:37;;;;;;;5.60;3.40;;;19.60;99.90;;;;;;5031983;28;20056;-87
2022/05/11 02:40:05;;;;;;;3.50;3.20;;;19.50;99.90;;;;;;5031915;28;20482;-89
2022/05/11 02:42:30;;;;;;;4.35;3.40;;;19.40;99.90;;;;;;5032474;28;20060;-88
2022/05/11 02:44:56;;;;;;;3.55;3.28;;;19.40;99.90;;;;;;5032094;28;20053;-89
2022/05/11 02:47:22;;;;;;;3.63;3.03;;;19.40;99.90;;;;;;5032008;28;20041;-88
2022/05/11 02:49:47;;;;;;;3.78;3.40;;;19.40;99.90;;;;;;5031762;28;20111;-88
2022/05/11 02:52:14;;;;;;;4.03;3.47;;;19.40;99.90;;;;;;5031981;28;20037;-88
2022/05/11 02:54:40;;;;;;;3.95;3.00;;;19.40;99.90;;;;;;5032293;28;20022;-88
2022/05/11 02:57:06;;;;;;;3.72;3.40;;;19.40;99.90;;;;;;5014077;28;20405;-89
2022/05/11 02:59:32;;;;;;;3.60;3.30;;;19.40;99.90;;;;;;5013771;28;20033;-88
2022/05/11 03:01:58;;;;;;;4.38;3.22;;;19.40;99.90;;;;;;5031879;28;20041;-88
2022/05/11 03:04:24;;;;;;;3.78;3.33;;;19.40;99.90;;;;;;5033763;28;20029;-88
2022/05/11 03:06:50;;;;;;;3.45;3.15;;;19.40;99.90;;;;;;5018167;28;20040;-87
2022/05/11 03:09:16;;;;;;;3.50;3.20;;;19.40;99.90;;;;;;5050813;28;20477;-88
2022/05/11 03:11:43;;;;;;;3.42;3.13;;;19.40;99.90;;;;;;5017696;28;20040;-89
2022/05/11 03:14:09;;;;;;;3.60;3.30;;;19.20;99.90;;;;;;5017729;28;20485;-88
2022/05/11 03:16:38;;;;;;;6.20;3.42;;;19.20;99.90;;;;;;5035541;28;20045;-88
2022/05/11 03:19:05;;;;;;;3.50;3.20;;;19.30;99.90;;;;;;5035356;28;20097;-89
2022/05/11 03:21:31;;;;;;;4.63;3.30;;;19.20;99.90;;;;;;5035253;28;20033;-88
2022/05/11 03:23:57;;;;;;;4.03;3.35;;;19.10;99.90;;;;;;5035232;28;20049;-88
2022/05/11 03:26:23;;;;;;;3.55;3.25;;;19.10;99.90;;;;;;5017390;28;20408;-88
2022/05/11 03:28:49;;;;;;;4.25;3.85;;;19.10;99.90;;;;;;5034953;28;20108;-88
2022/05/11 03:31:15;;;;;;;3.65;3.30;;;19.10;99.90;;;;;;5035175;28;20122;-89
2022/05/11 03:36:26;;;;;;;3.47;3.20;;;19.00;99.90;;;;;;5015720;28;20050;-88
2022/05/11 03:38:51;;;;;;;3.83;3.40;;;19.00;99.90;;;;;;5031518;28;20037;-89
2022/05/11 03:41:18;;;;;;;3.92;3.28;;;19.10;99.90;;;;;;5035210;28;20025;-88
2022/05/11 03:43:44;;;;;;;3.60;3.30;;;19.10;99.90;;;;;;5034971;28;20029;-88
2022/05/11 03:46:10;;;;;;;4.75;3.35;;;19.10;99.90;;;;;;5017112;28;20026;-88
2022/05/11 03:48:37;;;;;;;3.67;3.20;;;19.10;99.90;;;;;;5035235;28;20032;-88
2022/05/11 03:51:04;;;;;;;3.15;2.95;;;19.10;99.90;;;;;;5016594;28;20033;-88
2022/05/11 03:53:30;;;;;;;3.50;3.20;;;19.00;99.90;;;;;;5034646;28;20116;-89
2022/05/11 03:55:56;;;;;;;5.65;3.60;;;18.90;99.90;;;;;;5034527;28;20036;-87
2022/05/11 03:58:21;;;;;;;3.75;3.45;;;19.00;99.90;;;;;;5034663;28;20041;-88
2022/05/11 04:00:47;;;;;;;3.60;3.30;;;19.10;99.90;;;;;;5034948;28;20479;-89
2022/05/11 04:03:13;;;;;;;8.30;3.40;;;19.00;99.90;;;;;;5034395;28;20033;-88
2022/05/11 04:05:38;;;;;;;5.35;3.20;;;19.00;99.90;;;;;;5016585;28;20056;-88
2022/05/11 04:08:04;;;;;;;3.58;3.20;;;18.90;99.90;;;;;;5016498;28;20457;-89
2022/05/11 04:10:30;;;;;;;3.63;3.20;;;18.80;99.90;;;;;;5016756;28;20029;-88
2022/05/11 04:12:55;;;;;;;4.05;3.38;;;18.90;99.90;;;;;;5034593;28;20025;-88
2022/05/11 04:15:21;;;;;;;3.40;3.10;;;18.90;99.90;;;;;;5033135;28;20029;-88
2022/05/11 04:17:47;;;;;;;3.53;3.33;;;18.90;99.90;;;;;;5033927;28;20037;-88
2022/05/11 04:20:15;;;;;;;4.47;3.50;;;18.80;99.90;;;;;;5034319;28;20037;-88
2022/05/11 04:22:41;;;;;;;3.50;3.20;;;18.80;99.90;;;;;;5033797;28;20084;-88
2022/05/11 04:25:07;;;;;;;5.00;3.50;;;19.00;99.90;;;;;;5034383;28;20030;-89
2022/05/11 04:27:34;;;;;;;3.75;3.10;;;18.90;99.90;;;;;;5034374;28;20163;-88
2022/05/11 04:30:01;;;;;;;7.90;3.42;;;18.90;99.90;;;;;;5033887;28;20022;-88
2022/05/11 04:32:27;;;;;;;4.07;3.30;;;18.90;99.90;;;;;;5034107;28;20058;-88
2022/05/11 04:34:53;;;;;;;3.70;3.13;;;18.90;99.90;;;;;;5033364;28;20033;-88
2022/05/11 04:37:19;;;;;;;3.97;3.38;;;18.90;99.90;;;;;;5016333;28;20056;-89
2022/05/11 04:39:44;;;;;;;4.68;3.53;;;19.00;99.90;;;;;;5034017;28;20468;-88
2022/05/11 04:42:11;;;;;;;3.78;3.47;;;18.90;99.90;;;;;;5033774;28;20076;-89
2022/05/11 04:44:37;;;;;;;4.90;3.67;;;18.90;99.90;;;;;;5033336;28;20029;-88
2022/05/11 04:47:11;;;;;;;3.88;3.35;;;19.00;99.90;;;;;;5033224;28;20052;-87
2022/05/11 04:49:40;;;;;;;4.05;3.55;;;19.00;99.90;;;;;;5033317;28;20025;-88
2022/05/11 04:52:09;;;;;;;5.72;3.78;;;18.80;99.90;;;;;;5033602;28;20036;-88
2022/05/11 04:54:39;;;;;;;4.05;3.65;;;18.90;99.90;;;;;;5033906;28;20029;-89
2022/05/11 04:57:06;;;;;;;4.72;3.63;;;18.90;99.90;;;;;;5033286;28;20493;-89
2022/05/11 04:59:32;;;;;;;3.72;3.42;;;18.90;99.90;;;;;;5033289;28;20034;-88
2022/05/11 05:02:01;;;;;;;3.97;3.67;;;19.00;99.90;;;;;;5033187;28;20029;-88
2022/05/11 05:04:28;;;;;;;4.00;3.60;;;18.90;99.90;;;;;;5033449;28;20129;-88
2022/05/11 05:06:55;;;;;;;5.80;4.20;;;18.90;99.90;;;;;;5015847;28;20032;-88
2022/05/11 05:09:21;;;;;;;4.90;3.90;;;19.10;99.90;;;;;;5033175;28;20024;-88
2022/05/11 05:11:46;;;;;;;4.50;4.10;;;19.00;99.90;;;;;;5015423;28;20034;-88
2022/05/11 05:14:12;;;;;;;7.50;4.10;;;19.00;99.90;;;;;;5033376;28;20060;-88
2022/05/11 05:16:39;;;;;;;4.47;4.07;;;19.10;99.90;;;;;;5032936;28;20164;-88
2022/05/11 05:19:05;;;;;;;5.18;3.78;;;19.10;99.90;;;;;;5032292;28;20030;-88
2022/05/11 05:21:31;;;;;;;6.13;4.28;;;19.10;99.90;;;;;;5015581;28;20393;-89
2022/05/11 05:23:57;;;;;;;4.20;3.80;;;19.10;99.90;;;;;;5032653;28;20033;-88
2022/05/11 05:26:23;;;;;;;6.13;3.92;;;19.10;99.90;;;;;;5032387;28;20444;-88
2022/05/11 05:31:33;;;;;;;6.90;4.18;;;19.10;99.90;;;;;;5018169;28;20484;-88
2022/05/11 05:34:01;;;;;;;7.95;4.28;;;19.20;99.90;;;;;;5015112;28;20050;-88
2022/05/11 05:36:30;;;;;;;5.93;4.20;;;19.10;99.90;;;;;;5030001;28;20045;-88
2022/05/11 05:38:57;;;;;;;6.05;4.38;;;19.30;99.90;;;;;;5015052;28;20025;-89
2022/05/11 05:41:24;;;;;;;4.50;4.10;;;19.40;99.90;;;;;;5032703;28;20041;-88
2022/05/11 05:43:50;;;;;;;5.05;4.47;;;19.40;99.90;;;;;;5032696;28;20021;-88
2022/05/11 05:46:17;;;;;;;4.22;3.83;;;19.40;99.90;;;;;;5031117;28;20041;-88
2022/05/11 05:48:43;;;;;;;6.57;3.88;;;19.50;99.90;;;;;;5032551;28;20108;-89
2022/05/11 05:51:11;;;;;;;5.68;4.18;;;19.60;99.90;;;;;;5032322;28;20112;-88
2022/05/11 05:53:37;;;;;;;6.55;4.03;;;19.70;99.90;;;;;;5031878;28;20540;-88
2022/05/11 05:56:03;;;;;;;5.13;4.20;;;19.70;99.90;;;;;;5014789;28;20025;-90
2022/05/11 05:58:29;;;;;;;6.60;4.40;;;19.70;99.90;;;;;;5032100;28;20044;-88
2022/05/11 06:00:55;;;;;;;5.95;4.13;;;19.80;99.90;;;;;;5032165;28;20025;-87
2022/05/11 06:03:23;;;;;;;5.57;4.00;;;19.80;99.90;;;;;;5031689;28;20033;-87
2022/05/11 06:05:49;;;;;;;4.28;3.88;;;19.90;99.90;;;;;;5031447;28;20040;-86
2022/05/11 06:08:17;;;;;;;4.68;4.28;;;19.90;99.90;;;;;;5032189;28;20140;-91
2022/05/11 06:10:44;;;;;;;5.43;4.18;;;19.90;99.90;;;;;;5015656;28;20068;-92
2022/05/11 06:13:09;;;;;;;4.38;3.63;;;19.90;99.90;;;;;;5032458;28;20029;-92
2022/05/11 06:15:39;;;;;;;4.40;3.97;;;20.00;99.90;;;;;;5032772;28;20501;-90
2022/05/11 06:18:06;;;;;;;4.03;3.72;;;20.20;99.90;;;;;;5032214;28;20119;-90
2022/05/11 06:20:33;;;;;;;4.38;3.75;;;20.20;99.90;;;;;;5032979;28;20045;-93
2022/05/11 06:22:58;;;;;;;6.43;4.10;;;20.20;99.90;;;;;;5014521;28;20053;-86
2022/05/11 06:25:24;;;;;;;5.70;3.90;;;20.30;99.90;;;;;;5032243;28;20495;-89
2022/05/11 06:27:50;;;;;;;6.80;4.10;;;20.40;99.90;;;;;;5032474;28;20544;-88
2022/05/11 06:30:17;;;;;;;5.00;4.28;;;20.50;99.90;;;;;;5046707;28;20053;-88
2022/05/11 06:32:43;;;;;;;10.13;4.20;;;20.60;99.90;;;;;;5013962;28;20052;-90
2022/05/11 06:35:09;;;;;;;4.40;4.00;;;20.60;99.90;;;;;;5032256;28;20029;-88
2022/05/11 06:37:40;;;;;;;5.57;4.13;;;20.60;99.90;;;;;;5032435;28;20068;-86
2022/05/11 06:40:07;;;;;;;4.57;4.22;;;20.60;99.90;;;;;;5035952;28;20049;-86
2022/05/11 06:42:33;;;;;;;5.90;4.28;;;20.70;99.90;;;;;;5035871;28;20032;-85
2022/05/11 06:44:59;;;;;;;6.65;4.10;;;20.90;99.90;;;;;;5035242;28;20390;-86
2022/05/11 06:47:25;;;;;;;4.38;3.70;;;21.00;99.90;;;;;;5035304;28;20037;-86
2022/05/11 06:49:50;;;;;;;4.40;4.00;;;20.90;99.90;;;;;;5035356;28;20084;-86
2022/05/11 06:52:17;;;;;;;5.28;4.20;;;21.00;99.90;;;;;;5035481;28;20116;-85
2022/05/11 07:00:12;;;;;;;5.95;3.97;;;21.30;99.90;;;;;;5035125;28;20052;-85
2022/05/11 07:02:39;;;;;;;5.28;4.45;;;21.40;99.90;;;;;;5035156;28;20029;-86
2022/05/11 07:05:06;;;;;;;4.43;3.80;;;21.40;99.90;;;;;;5034963;28;20371;-86
2022/05/11 07:07:32;;;;;;;5.47;4.28;;;21.40;99.90;;;;;;5016927;28;20474;-86
2022/05/11 07:09:58;;;;;;;4.22;3.53;;;21.50;99.90;;;;;;5035510;28;20045;-85
2022/05/11 07:12:37;;;;;;;3.90;3.60;;;21.40;99.90;;;;;;5034902;28;20096;-86
2022/05/11 07:15:06;;;;;;;4.78;3.72;;;21.50;99.90;;;;;;5034841;28;20124;-86
2022/05/11 07:17:40;;;;;;;4.45;3.30;;;21.60;99.90;;;;;;5034560;28;20041;-86
2022/05/11 07:20:12;;;;;;;4.78;3.58;;;21.60;99.90;;;;;;5017015;28;20405;-86
2022/05/11 07:22:38;;;;;;;8.00;3.55;;;21.70;99.90;;;;;;5034809;28;20021;-86
2022/05/11 07:25:05;;;;;;;5.90;3.47;;;21.80;99.90;;;;;;5034804;28;20025;-86
2022/05/11 07:27:31;;;;;;;3.92;3.28;;;21.80;99.90;;;;;;5034827;28;20497;-86
2022/05/11 07:29:57;;;;;;;3.60;3.30;;;21.90;99.90;;;;;;5034461;28;20022;-86
2022/05/11 07:32:23;;;;;;;3.90;3.50;;;21.90;99.90;;;;;;5034390;28;20075;-86
2022/05/11 07:34:50;;;;;;;4.93;3.30;;;22.00;99.90;;;;;;5034747;28;20529;-86
2022/05/11 07:37:16;;;;;;;4.10;3.50;;;22.00;99.90;;;;;;5034549;28;20667;-86
2022/05/11 07:39:41;;;;;;;4.45;3.63;;;22.10;99.90;;;;;;5035076;28;20033;-86
2022/05/11 07:42:08;;;;;;;5.13;3.65;;;22.10;99.90;;;;;;5034021;28;20032;-86
2022/05/11 07:44:34;;;;;;;3.80;3.50;;;22.10;99.90;;;;;;5034295;28;20041;-85
2022/05/11 07:47:00;;;;;;;4.00;3.60;;;22.20;99.90;;;;;;5034259;28;20025;-85
2022/05/11 07:49:25;;;;;;;4.65;3.70;;;22.20;99.90;;;;;;5034121;28;20030;-86
2022/05/11 07:51:52;;;;;;;4.15;3.30;;;22.40;99.90;;;;;;5034881;28;20018;-86
2022/05/11 07:54:19;;;;;;;3.60;3.30;;;22.30;99.90;;;;;;5034103;28;20048;-86
2022/05/11 08:02:14;;;;;;;3.63;3.33;;;22.50;99.90;;;;;;5034131;28;20059;-85
2022/05/11 08:04:41;;;;;;;4.80;3.30;;;22.50;99.90;;;;;;5034127;28;20024;-86
2022/05/11 08:07:07;;;;;;;4.72;3.15;;;22.70;99.90;;;;;;5032601;28;20033;-86
2022/05/11 08:09:33;;;;;;;5.30;3.17;;;22.70;99.90;;;;;;5034464;28;20029;-86
2022/05/11 08:12:00;;;;;;;5.03;3.20;;;22.70;99.90;;;;;;5033549;28;20055;-86
2022/05/11 08:14:26;;;;;;;3.60;3.30;;;22.60;99.90;;;;;;5033716;28;20032;-86
2022/05/11 08:16:52;;;;;;;4.45;3.20;;;22.70;99.90;;;;;;5033853;28;20033;-86
2022/05/11 08:19:22;;;;;;;4.82;3.47;;;22.80;99.90;;;;;;5033631;28;20025;-85
2022/05/11 08:21:50;;;;;;;3.80;3.35;;;22.90;99.90;;;;;;5034266;28;20037;-86
2022/05/11 08:24:15;;;;;;;6.07;3.80;;;23.00;99.90;;;;;;5033596;28;20079;-86
2022/05/11 08:26:42;;;;;;;4.80;3.78;;;23.00;99.90;;;;;;5033197;28;20045;-85
2022/05/11 08:29:08;;;;;;;5.80;3.65;;;23.00;99.90;;;;;;5033509;28;20025;-86
2022/05/11 08:34:18;;;;;;;3.83;3.33;;;23.10;99.90;;;;;;5033656;28;20422;-86
2022/05/11 08:36:47;;;;;;;4.22;3.55;;;23.10;99.90;;;;;;5033871;28;20025;-85
2022/05/11 08:39:13;;;;;;;3.78;3.40;;;23.10;99.90;;;;;;5033477;28;20030;-86
2022/05/11 08:41:50;;;;;;;3.60;3.30;;;23.20;99.90;;;;;;5033314;28;20493;-86
2022/05/11 08:44:22;;;;;;;5.35;3.65;;;23.40;99.90;;;;;;5033235;28;20096;-86
2022/05/11 08:47:06;;;;;;;3.90;3.40;;;23.50;99.90;;;;;;5015687;28;20117;-86
2022/05/11 08:49:37;;;;;;;5.43;3.60;;;23.60;99.90;;;;;;5033313;28;20026;-85
2022/05/11 08:52:05;;;;;;;3.88;3.58;;;23.60;99.90;;;;;;5033319;28;20026;-86
2022/05/11 08:54:44;;;;;;;5.18;3.25;;;23.60;99.90;;;;;;5033141;28;20033;-85
2022/05/11 08:57:17;;;;;;;3.65;3.35;;;23.60;99.90;;;;;;5032961;28;20041;-85
2022/05/11 08:59:43;;;;;;;3.83;3.40;;;23.60;99.90;;;;;;5032460;28;20033;-86
2022/05/11 09:02:14;;;;;;;3.72;3.42;;;23.60;99.90;;;;;;5032726;28;20112;-86
2022/05/11 09:04:48;;;;;;;3.65;3.30;;;23.70;99.90;;;;;;5015307;28;20545;-86
2022/05/11 09:07:13;;;;;;;4.15;3.55;;;23.80;99.90;;;;;;5032472;28;20048;-86
2022/05/11 09:09:40;;;;;;;5.53;3.75;;;23.80;99.90;;;;;;5033109;28;20043;-85
2022/05/11 09:12:07;;;;;;;4.07;3.25;;;23.80;99.90;;;;;;5014932;28;20053;-86
2022/05/11 09:14:41;;;;;;;4.43;3.50;;;23.90;99.90;;;;;;5032732;28;20053;-85
2022/05/11 09:17:26;;;;;;;4.07;3.20;;;23.70;99.90;;;;;;5032333;28;20556;-86
2022/05/11 09:20:23;;;;;;;5.28;3.70;;;24.00;99.90;;;;;;5032455;28;20449;-86
2022/05/11 09:22:59;;;;;;;4.18;3.45;;;24.00;99.90;;;;;;5019370;28;20033;-86
2022/05/11 09:25:35;;;;;;;3.78;3.47;;;24.10;99.90;;;;;;5017448;28;20079;-86
2022/05/11 09:28:24;;;;;;;4.18;3.17;;;24.10;99.90;;;;;;5032500;28;20493;-85
2022/05/11 09:31:01;;;;;;;3.65;3.10;;;24.10;99.90;;;;;;5028916;28;20024;-86
2022/05/11 09:33:33;;;;;;;5.40;3.20;;;24.20;99.90;;;;;;5031961;28;20138;-86
2022/05/11 09:36:02;;;;;;;3.30;2.95;;;24.30;99.90;;;;;;5032187;28;20029;-86
2022/05/11 09:38:39;;;;;;;3.67;2.80;;;24.10;99.90;;;;;;5031664;28;20442;-86
2022/05/11 09:41:22;;;;;;;3.20;2.90;;;24.00;99.90;;;;;;5032201;28;20502;-86
2022/05/11 09:43:52;;;;;;;3.65;2.80;;;24.10;99.90;;;;;;5032040;28;20482;-86
2022/05/11 09:46:26;;;;;;;4.40;2.90;;;24.20;99.90;;;;;;5032167;28;20514;-85
2022/05/11 09:49:09;;;;;;;6.72;3.17;;;24.40;99.90;;;;;;5028864;28;20032;-85
2022/05/11 09:51:43;;;;;;;3.08;2.80;;;24.40;99.90;;;;;;5030908;28;20021;-86
2022/05/11 09:54:38;;;;;;;5.00;3.00;;;24.50;99.90;;;;;;5032008;28;20073;-86
2022/05/11 09:57:12;;;;;;;4.03;2.75;;;24.70;99.90;;;;;;5031737;28;20049;-86
2022/05/11 09:59:38;;;;;;;2.83;2.58;;;24.70;99.90;;;;;;5031815;28;20017;-86
2022/05/11 10:02:32;;;;;;;4.70;2.63;;;24.50;99.90;;;;;;5031688;28;20025;-86
2022/05/11 10:05:08;;;;;;;4.82;2.63;;;24.60;99.90;;;;;;5031943;28;20413;-86
2022/05/11 10:07:57;;;;;;;3.42;2.92;;;24.50;99.90;;;;;;5031410;28;20088;-85
2022/05/11 10:10:44;;;;;;;5.53;2.53;;;24.60;99.90;;;;;;5016350;28;20017;-86
2022/05/11 10:13:12;;;;;;;3.47;2.53;;;24.80;99.90;;;;;;5030470;28;20036;-86
2022/05/11 10:21:50;;;;;;;2.97;2.78;;;25.10;99.90;;;;;;5031417;28;20075;-86
2022/05/11 10:24:29;;;;;;;2.67;2.47;;;25.10;99.90;;;;;;5031502;28;20041;-86
2022/05/11 10:27:19;;;;;;;3.03;2.58;;;25.10;99.90;;;;;;5013938;28;20057;-85
2022/05/11 10:30:07;;;;;;;2.75;2.50;;;25.10;99.90;;;;;;5031543;28;20445;-86
2022/05/11 10:32:36;;;;;;;3.60;2.80;;;25.30;99.90;;;;;;5031376;28;20072;-85
2022/05/11 10:35:41;;;;;;;3.33;2.67;;;25.30;99.90;;;;;;5031539;28;20124;-86
2022/05/11 10:38:25;;;;;;;6.25;2.70;;;25.20;99.90;;;;;;5031316;28;20060;-86
2022/05/11 10:41:03;;;;;;;3.42;2.38;;;25.40;99.90;;;;;;5031529;28;20029;-86
2022/05/11 10:43:36;;;;;;;2.83;2.63;;;25.40;99.90;;;;;;5016791;28;20025;-86
2022/05/11 10:46:09;;;;;;;4.13;2.80;;;25.50;99.90;;;;;;5031733;28;20025;-87
2022/05/11 10:48:41;;;;;;;2.67;2.47;;;25.60;99.90;;;;;;5030003;28;20022;-86
2022/05/11 10:51:15;;;;;;;4.28;2.70;;;25.60;99.90;;;;;;5031088;28;20107;-85
2022/05/11 10:53:54;;;;;;;2.80;2.60;;;25.50;99.90;;;;;;5031938;28;20033;-85
2022/05/11 10:56:40;;;;;;;3.92;2.78;;;25.50;99.90;;;;;;5031216;28;20038;-86
2022/05/11 10:59:32;;;;;;;2.80;2.60;;;25.50;99.90;;;;;;5031376;28;20017;-86
2022/05/11 11:02:18;;;;;;;2.97;2.60;;;25.60;99.90;;;;;;5031376;28;20032;-86
2022/05/11 11:05:21;;;;;;;5.55;2.88;;;25.60;99.90;;;;;;5030944;28;20029;-86
2022/05/11 11:08:10;;;;;;;4.30;2.53;;;25.80;99.90;;;;;;5018882;28;20030;-86
2022/05/11 11:11:05;;;;;;;6.43;2.63;;;26.00;99.90;;;;;;5017574;28;20168;-86
2022/05/11 11:13:54;;;;;;;3.17;2.45;;;26.00;99.90;;;;;;5016765;28;20120;-86
2022/05/11 11:16:25;;;;;;;2.88;2.67;;;26.10;99.90;;;;;;5031193;28;20497;-86
2022/05/11 11:18:51;;;;;;;3.90;2.92;;;26.10;99.90;;;;;;5009804;28;20486;-86
2022/05/11 11:21:17;;;;;;;2.80;2.60;;;26.20;99.90;;;;;;5031136;28;20034;-86
2022/05/11 11:23:47;;;;;;;2.90;2.60;;;26.20;99.90;;;;;;5032161;28;20036;-86
2022/05/11 11:26:28;;;;;;;5.28;3.00;;;26.40;99.90;;;;;;5034679;28;20124;-85
2022/05/11 11:28:56;;;;;;;4.00;2.88;;;26.50;99.90;;;;;;5034738;28;20453;-86
2022/05/11 11:31:29;;;;;;;2.78;2.45;;;26.60;99.90;;;;;;5017464;28;20112;-86
2022/05/11 11:33:54;;;;;;;2.65;2.45;;;26.70;99.90;;;;;;5013350;28;20060;-86
2022/05/11 11:36:37;;;;;;;2.95;2.55;;;27.00;99.90;;;;;;5034840;28;20025;-86
2022/05/11 11:39:09;;;;;;;2.75;2.40;;;27.40;99.90;;;;;;5034410;28;20044;-86
2022/05/11 11:41:41;;;;;;;3.55;2.80;;;27.60;99.90;;;;;;5034380;28;20453;-86
2022/05/11 11:44:26;;;;;;;3.15;2.60;;;28.00;99.90;;;;;;5034442;28;20025;-86
2022/05/11 11:46:53;;;;;;;3.63;2.50;;;28.30;99.90;;;;;;5034355;28;20450;-86
2022/05/11 11:49:19;;;;;;;3.15;2.53;;;28.40;99.90;;;;;;5034062;28;20394;-86
2022/05/11 11:52:04;;;;;;;2.70;2.50;;;28.70;99.90;;;;;;5034837;28;20036;-86
2022/05/11 11:54:43;;;;;;;3.80;2.63;;;28.80;99.90;;;;;;5034208;28;20036;-86
2022/05/11 11:57:20;;;;;;;3.20;2.38;;;29.20;99.90;;;;;;5033909;28;20088;-86
2022/05/11 11:59:49;;;;;;;3.83;2.42;;;29.40;99.90;;;;;;5034054;28;20048;-87
2022/05/11 12:02:36;;;;;;;3.97;2.50;;;29.40;99.90;;;;;;5033662;28;20040;-86
2022/05/11 12:05:27;;;;;;;2.25;2.03;;;29.20;99.90;;;;;;5033940;28;20018;-85
2022/05/11 12:16:53;;;;;;;5.45;2.70;;;29.60;99.90;;;;;;4938850;29;20119;-86
2022/05/11 12:19:21;;;;;;;2.75;2.30;;;30.00;99.90;;;;;;4953285;29;20041;-86
2022/05/11 12:22:18;;;;;;;2.85;2.60;;;30.60;99.90;;;;;;4954158;29;20436;-86
2022/05/11 12:24:47;;;;;;;2.50;2.30;;;31.00;99.90;;;;;;4953444;29;20082;-86
2022/05/11 12:27:23;;;;;;;2.53;2.33;;;31.60;99.90;;;;;;4953397;29;20113;-86
2022/05/11 12:29:54;;;;;;;3.63;2.60;;;31.40;99.90;;;;;;4953246;29;20039;-86
2022/05/11 12:32:49;;;;;;;4.63;2.60;;;31.30;99.90;;;;;;4948452;29;20543;-85
2022/05/11 12:35:41;;;;;;;3.85;2.38;;;31.30;99.90;;;;;;4940408;28;20047;-86
2022/05/11 12:38:10;;;;;;;4.63;2.63;;;31.70;99.90;;;;;;4944944;29;20078;-87
2022/05/11 12:40:47;;;;;;;4.88;2.30;;;31.70;99.90;;;;;;4953272;29;20495;-86
2022/05/11 12:43:24;;;;;;;5.18;2.65;;;31.30;99.90;;;;;;4953170;29;20034;-87
2022/05/11 12:45:51;;;;;;;6.25;2.55;;;31.50;99.90;;;;;;4934565;29;20035;-86
2022/05/11 12:48:19;;;;;;;6.63;2.95;;;31.70;99.90;;;;;;5007503;28;20042;-86
2022/05/11 12:51:00;;;;;;;7.30;2.50;;;31.30;99.90;;;;;;5033281;28;20033;-86
2022/05/11 12:53:29;;;;;;;4.03;2.53;;;30.90;99.90;;;;;;5033002;28;20417;-86
2022/05/11 12:56:16;;;;;;;5.18;2.60;;;31.30;99.90;;;;;;5033253;28;20359;-86
2022/05/11 12:58:45;;;;;;;3.88;2.45;;;31.70;99.90;;;;;;5020019;28;20041;-86
2022/05/11 13:01:14;;;;;;;4.75;2.60;;;31.20;99.90;;;;;;5032707;28;20071;-86
2022/05/11 13:03:41;;;;;;;2.72;2.30;;;31.30;99.90;;;;;;5033557;28;20394;-87
2022/05/11 13:06:34;;;;;;;2.88;2.60;;;31.70;99.90;;;;;;5032915;28;20025;-86
2022/05/11 13:09:13;;;;;;;3.78;2.40;;;32.30;99.90;;;;;;5029591;28;20050;-86
2022/05/11 13:11:39;;;;;;;5.20;2.60;;;31.30;99.90;;;;;;5032689;28;20033;-87
2022/05/11 13:14:16;;;;;;;3.35;2.63;;;30.90;99.90;;;;;;5032745;28;20034;-87
2022/05/11 13:16:48;;;;;;;5.20;2.33;;;30.40;99.90;;;;;;5032357;28;20430;-86
2022/05/11 13:19:38;;;;;;;3.28;2.33;;;31.00;99.90;;;;;;5032743;28;20513;-87
2022/05/11 13:22:11;;;;;;;4.05;2.60;;;30.90;99.90;;;;;;5030259;28;20030;-86
2022/05/11 13:24:42;;;;;;;3.85;2.53;;;31.10;99.90;;;;;;5031578;28;20038;-86
2022/05/11 13:27:40;;;;;;;5.30;2.70;;;30.70;99.90;;;;;;5032341;28;20469;-86
2022/05/11 13:30:21;;;;;;;6.30;2.75;;;30.30;99.90;;;;;;5032106;28;20028;-86
2022/05/11 13:32:55;;;;;;;7.10;2.72;;;30.70;99.90;;;;;;5032112;28;20509;-86
2022/05/11 13:35:27;;;;;;;5.13;2.90;;;30.60;99.90;;;;;;5032175;28;20025;-86
2022/05/11 13:38:00;;;;;;;3.33;2.30;;;30.90;99.90;;;;;;5032233;28;20068;-86
2022/05/11 13:40:32;;;;;;;6.28;2.80;;;30.70;99.90;;;;;;5017070;28;20036;-86
2022/05/11 13:42:59;;;;;;;3.20;2.90;;;30.20;99.90;;;;;;5032715;28;20044;-86
2022/05/11 13:45:25;;;;;;;3.65;2.50;;;30.50;99.90;;;;;;5032254;28;20385;-86
2022/05/11 13:48:13;;;;;;;5.07;2.28;;;30.50;99.90;;;;;;5031763;28;20121;-86
2022/05/11 13:50:45;;;;;;;3.88;2.53;;;30.40;99.90;;;;;;5032154;28;20470;-86